createdAt,value
2024-01-29T00:03:07.079Z,100.00
2024-01-29T00:07:09.143Z,100.00
2024-01-29T00:11:11.843Z,100.00
2024-01-29T00:15:13.956Z,100.00
2024-01-29T00:19:16.500Z,100.00
2024-01-29T00:23:18.539Z,100.00
2024-01-29T00:27:20.539Z,100.00
2024-01-29T00:31:24.117Z,100.00
2024-01-29T00:35:26.168Z,100.00
2024-01-29T00:39:28.188Z,100.00
2024-01-29T00:43:30.181Z,100.00
2024-01-29T00:47:32.169Z,100.00
2024-01-29T00:51:34.227Z,100.00
2024-01-29T00:55:36.269Z,100.00
2024-01-29T00:59:38.306Z,100.00
2024-01-29T01:03:40.732Z,100.00
2024-01-29T01:07:42.884Z,100.00
2024-01-29T01:11:44.881Z,100.00
2024-01-29T01:15:46.973Z,100.00
2024-01-29T01:19:49.281Z,100.00
2024-01-29T01:23:51.697Z,100.00
2024-01-29T01:27:54.534Z,100.00
2024-01-29T01:31:56.485Z,100.00
2024-01-29T01:35:58.523Z,100.00
2024-01-29T01:40:00.678Z,100.00
2024-01-29T01:44:02.852Z,100.00
2024-01-29T01:48:06.305Z,100.00
2024-01-29T01:52:09.189Z,100.00
2024-01-29T01:56:12.498Z,100.00
2024-01-29T02:00:14.783Z,100.00
2024-01-29T02:04:17.359Z,100.00
2024-01-29T02:08:19.581Z,100.00
2024-01-29T02:12:23.881Z,100.00
2024-01-29T02:16:26.100Z,100.00
2024-01-29T02:20:28.362Z,100.00
2024-01-29T02:24:30.337Z,100.00
2024-01-29T02:28:32.873Z,100.00
2024-01-29T02:32:35.231Z,100.00
2024-01-29T02:36:37.369Z,100.00
2024-01-29T02:40:39.470Z,100.00
2024-01-29T02:44:41.415Z,100.00
2024-01-29T02:48:43.437Z,100.00
2024-01-29T02:52:45.614Z,100.00
2024-01-29T02:56:47.595Z,100.00
2024-01-29T03:00:49.834Z,100.00
2024-01-29T03:04:52.648Z,100.00
2024-01-29T03:08:54.726Z,100.00
2024-01-29T03:12:58.516Z,100.00
2024-01-29T03:17:00.595Z,100.00
2024-01-29T03:21:03.321Z,100.00
2024-01-29T03:25:06.050Z,100.00
2024-01-29T03:29:08.118Z,100.00
2024-01-29T03:33:10.252Z,100.00
2024-01-29T03:37:12.830Z,100.00
2024-01-29T03:41:14.810Z,100.00
2024-01-29T03:45:16.760Z,100.00
2024-01-29T03:49:18.885Z,100.00
2024-01-29T03:53:21.446Z,100.00
2024-01-29T03:57:23.469Z,100.00
2024-01-29T04:01:27.735Z,100.00
2024-01-29T04:05:30.042Z,100.00
2024-01-29T04:09:32.142Z,100.00
2024-01-29T04:13:35.371Z,100.00
2024-01-29T04:17:37.425Z,100.00
2024-01-29T04:21:43.326Z,100.00
2024-01-29T04:25:45.364Z,100.00
2024-01-29T04:29:47.448Z,100.00
2024-01-29T04:33:49.590Z,100.00
2024-01-29T04:37:53.851Z,100.00
2024-01-29T04:41:55.839Z,100.00
2024-01-29T04:45:57.891Z,100.00
2024-01-29T04:49:59.941Z,100.00
2024-01-29T04:54:01.924Z,100.00
2024-01-29T04:58:04.287Z,100.00
2024-01-29T05:02:07.059Z,100.00
2024-01-29T05:06:09.205Z,100.00
2024-01-29T05:10:11.485Z,100.00
2024-01-29T05:14:13.560Z,100.00
2024-01-29T05:18:15.589Z,100.00
2024-01-29T05:22:17.710Z,100.00
2024-01-29T05:26:19.790Z,100.00
2024-01-29T05:30:21.812Z,100.00
2024-01-29T05:34:24.009Z,100.00
2024-01-29T05:38:26.204Z,100.00
2024-01-29T05:42:28.493Z,100.00
2024-01-29T05:46:30.407Z,100.00
2024-01-29T05:50:32.399Z,100.00
2024-01-29T05:54:34.664Z,100.00
2024-01-29T05:58:37.553Z,100.00
2024-01-29T06:02:43.652Z,100.00
2024-01-29T06:06:46.143Z,100.00
2024-01-29T06:10:49.402Z,100.00
2024-01-29T06:14:52.706Z,100.00
2024-01-29T06:18:55.297Z,100.00
2024-01-29T06:22:57.422Z,100.00
2024-01-29T06:26:59.597Z,100.00
2024-01-29T06:31:01.683Z,100.00
2024-01-29T06:35:03.836Z,100.00
2024-01-29T06:39:08.216Z,100.00
2024-01-29T06:43:10.308Z,100.00
2024-01-29T06:47:12.812Z,100.00
2024-01-29T06:51:16.674Z,100.00
2024-01-29T06:55:20.890Z,100.00
2024-01-29T06:59:26.408Z,100.00
2024-01-29T07:03:28.671Z,100.00
2024-01-29T07:07:31.058Z,100.00
2024-01-29T07:11:33.153Z,100.00
2024-01-29T07:15:35.322Z,100.00
2024-01-29T07:19:37.531Z,100.00
2024-01-29T07:23:39.808Z,100.00
2024-01-29T07:27:41.901Z,100.00
2024-01-29T07:31:44.105Z,100.00
2024-01-29T07:35:46.226Z,100.00
2024-01-29T07:39:48.316Z,100.00
2024-01-29T07:43:50.486Z,99.99
2024-01-29T07:47:53.685Z,99.99
2024-01-29T07:51:55.970Z,99.94
2024-01-29T07:55:58.478Z,99.86
2024-01-29T08:00:00.898Z,99.65
2024-01-29T08:04:04.228Z,99.61
2024-01-29T08:08:06.934Z,99.55
2024-01-29T08:12:09.034Z,99.47
2024-01-29T08:16:11.144Z,99.44
2024-01-29T08:20:14.338Z,99.31
2024-01-29T08:24:16.661Z,99.29
2024-01-29T08:28:18.713Z,99.19
2024-01-29T08:32:21.982Z,98.97
2024-01-29T08:36:24.484Z,98.85
2024-01-29T08:40:26.449Z,98.88
2024-01-29T08:44:28.396Z,98.84
2024-01-29T08:48:30.518Z,98.73
2024-01-29T08:52:32.575Z,98.26
2024-01-29T08:56:35.019Z,98.01
2024-01-29T09:00:37.308Z,98.19
2024-01-29T09:04:39.470Z,98.12
2024-01-29T09:08:44.541Z,97.98
2024-01-29T09:12:46.737Z,97.87
2024-01-29T09:16:49.129Z,97.74
2024-01-29T09:20:51.111Z,97.74
2024-01-29T09:24:53.187Z,97.75
2024-01-29T09:28:55.400Z,97.28
2024-01-29T09:33:06.742Z,96.77
2024-01-29T09:37:20.190Z,96.77
2024-01-29T09:41:22.391Z,96.48
2024-01-29T09:45:27.443Z,96.62
2024-01-29T09:49:29.795Z,96.48
2024-01-29T09:53:36.496Z,95.53
2024-01-29T09:57:39.533Z,95.30
2024-01-29T10:01:43.040Z,95.31
2024-01-29T10:05:45.785Z,95.17
2024-01-29T10:09:51.963Z,94.92
2024-01-29T10:13:59.244Z,94.94
2024-01-29T10:18:01.921Z,94.57
2024-01-29T10:22:10.262Z,94.24
2024-01-29T10:26:15.171Z,94.61
2024-01-29T10:30:17.427Z,94.62
2024-01-29T10:34:22.417Z,94.46
2024-01-29T10:38:27.168Z,93.77
2024-01-29T10:42:32.468Z,93.59
2024-01-29T10:46:39.739Z,93.78
2024-01-29T10:50:42.682Z,93.81
2024-01-29T10:54:44.904Z,93.44
2024-01-29T10:58:48.205Z,93.37
2024-01-29T11:02:50.703Z,93.30
2024-01-29T11:07:06.423Z,93.12
2024-01-29T11:11:10.395Z,92.51
2024-01-29T11:15:12.938Z,92.41
2024-01-29T11:19:16.982Z,92.34
2024-01-29T11:23:31.010Z,92.43
2024-01-29T11:27:33.974Z,92.20
2024-01-29T11:31:41.519Z,91.95
2024-01-29T11:35:47.338Z,91.45
2024-01-29T11:39:51.169Z,91.18
2024-01-29T11:43:53.144Z,91.12
2024-01-29T11:47:55.216Z,91.30
2024-01-29T11:51:57.641Z,91.14
2024-01-29T11:55:59.904Z,90.92
2024-01-29T12:00:02.016Z,91.10
2024-01-29T12:04:06.736Z,90.93
2024-01-29T12:08:20.419Z,90.54
2024-01-29T12:12:24.196Z,90.40
2024-01-29T12:16:28.374Z,90.19
2024-01-29T12:20:30.490Z,89.92
2024-01-29T12:24:33.123Z,89.79
2024-01-29T12:28:35.156Z,89.61
2024-01-29T12:32:39.754Z,89.58
2024-01-29T12:36:41.777Z,88.99
2024-01-29T12:40:45.098Z,89.00
2024-01-29T12:44:51.270Z,88.80
2024-01-29T12:48:55.024Z,88.59
2024-01-29T12:52:57.749Z,88.73
2024-01-29T12:57:00.595Z,88.76
2024-01-29T13:01:02.989Z,89.07
2024-01-29T13:05:06.152Z,88.70
2024-01-29T13:09:09.111Z,88.38
2024-01-29T13:13:11.925Z,88.31
2024-01-29T13:17:13.928Z,88.20
2024-01-29T13:21:18.334Z,88.33
2024-01-29T13:25:20.504Z,88.40
2024-01-29T13:29:22.438Z,88.23
2024-01-29T13:33:24.424Z,88.09
2024-01-29T13:37:26.607Z,88.12
2024-01-29T13:41:28.637Z,87.76
2024-01-29T13:45:30.700Z,88.01
2024-01-29T13:49:33.797Z,88.06
2024-01-29T13:53:37.985Z,87.92
2024-01-29T13:57:40.098Z,88.16
2024-01-29T14:01:42.279Z,88.24
2024-01-29T14:05:44.340Z,88.26
2024-01-29T14:09:46.365Z,88.24
2024-01-29T14:13:50.100Z,88.24
2024-01-29T14:17:52.273Z,88.29
2024-01-29T14:21:54.690Z,88.44
2024-01-29T14:25:57.428Z,88.41
2024-01-29T14:30:00.301Z,88.46
2024-01-29T14:34:02.380Z,88.58
2024-01-29T14:38:07.173Z,88.61
2024-01-29T14:42:09.218Z,88.63
2024-01-29T14:46:12.993Z,88.60
2024-01-29T14:50:16.286Z,88.86
2024-01-29T14:54:18.455Z,88.83
2024-01-29T14:58:20.675Z,88.81
2024-01-29T15:02:22.727Z,88.79
2024-01-29T15:06:28.166Z,88.84
2024-01-29T15:10:30.179Z,88.92
2024-01-29T15:14:32.257Z,89.06
2024-01-29T15:18:37.449Z,88.92
2024-01-29T15:22:39.533Z,89.05
2024-01-29T15:26:41.511Z,89.24
2024-01-29T15:30:43.722Z,89.47
2024-01-29T15:34:49.192Z,89.62
2024-01-29T15:38:51.635Z,89.58
2024-01-29T15:42:59.638Z,89.70
2024-01-29T15:47:01.632Z,89.83
2024-01-29T15:51:04.596Z,90.04
2024-01-29T15:55:07.211Z,90.22
2024-01-29T15:59:12.100Z,90.20
2024-01-29T16:03:14.079Z,90.19
2024-01-29T16:07:16.309Z,90.31
2024-01-29T16:11:18.315Z,90.44
2024-01-29T16:15:20.384Z,90.54
2024-01-29T16:19:22.628Z,90.84
2024-01-29T16:23:27.167Z,91.12
2024-01-29T16:27:29.160Z,91.14
2024-01-29T16:31:31.078Z,91.26
2024-01-29T16:35:33.143Z,91.18
2024-01-29T16:39:35.320Z,91.49
2024-01-29T16:43:37.285Z,91.55
2024-01-29T16:47:41.340Z,91.50
2024-01-29T16:51:43.334Z,91.68
2024-01-29T16:55:45.401Z,91.86
2024-01-29T16:59:47.363Z,92.01
2024-01-29T17:03:49.481Z,92.19
2024-01-29T17:07:51.482Z,92.37
2024-01-29T17:11:53.521Z,92.40
2024-01-29T17:15:55.979Z,92.53
2024-01-29T17:19:58.221Z,92.52
2024-01-29T17:24:00.737Z,92.52
2024-01-29T17:28:03.177Z,92.48
2024-01-29T17:32:05.692Z,92.64
2024-01-29T17:36:09.385Z,93.02
2024-01-29T17:40:11.631Z,93.03
2024-01-29T17:44:13.657Z,93.03
2024-01-29T17:48:16.184Z,92.96
2024-01-29T17:52:18.390Z,93.30
2024-01-29T17:56:20.459Z,93.28
2024-01-29T18:00:24.322Z,93.23
2024-01-29T18:04:26.318Z,93.17
2024-01-29T18:08:31.039Z,93.18
2024-01-29T18:12:33.128Z,93.18
2024-01-29T18:16:35.224Z,93.10
2024-01-29T18:20:37.188Z,93.41
2024-01-29T18:24:41.449Z,93.48
2024-01-29T18:28:43.517Z,93.58
2024-01-29T18:32:45.475Z,93.22
2024-01-29T18:36:47.541Z,93.07
2024-01-29T18:40:49.525Z,93.14
2024-01-29T18:44:54.108Z,93.29
2024-01-29T18:48:56.148Z,93.25
2024-01-29T18:52:58.243Z,93.45
2024-01-29T18:57:00.614Z,93.77
2024-01-29T19:01:02.884Z,93.88
2024-01-29T19:05:05.444Z,93.82
2024-01-29T19:09:08.326Z,93.82
2024-01-29T19:13:10.346Z,94.10
2024-01-29T19:17:16.020Z,94.39
2024-01-29T19:21:18.085Z,94.51
2024-01-29T19:25:20.079Z,94.51
2024-01-29T19:29:22.153Z,94.63
2024-01-29T19:33:24.237Z,94.70
2024-01-29T19:37:29.552Z,94.67
2024-01-29T19:41:34.566Z,94.61
2024-01-29T19:45:36.521Z,94.64
2024-01-29T19:49:38.661Z,94.87
2024-01-29T19:53:40.649Z,95.00
2024-01-29T19:57:44.058Z,94.96
2024-01-29T20:01:46.515Z,94.79
2024-01-29T20:05:48.951Z,94.80
2024-01-29T20:09:51.067Z,94.87
2024-01-29T20:13:53.201Z,95.05
2024-01-29T20:17:55.275Z,95.08
2024-01-29T20:21:57.276Z,95.13
2024-01-29T20:25:59.544Z,95.03
2024-01-29T20:30:03.067Z,94.95
2024-01-29T20:34:05.217Z,95.04
2024-01-29T20:38:07.185Z,95.25
2024-01-29T20:42:11.498Z,95.36
2024-01-29T20:46:14.757Z,95.53
2024-01-29T20:50:17.024Z,96.00
2024-01-29T20:54:19.040Z,95.84
2024-01-29T20:58:21.104Z,95.81
2024-01-29T21:02:23.192Z,95.50
2024-01-29T21:06:25.455Z,95.54
2024-01-29T21:10:28.936Z,95.64
2024-01-29T21:14:30.950Z,95.88
2024-01-29T21:18:33.158Z,95.95
2024-01-29T21:22:36.775Z,96.06
2024-01-29T21:26:39.224Z,96.03
2024-01-29T21:30:41.319Z,96.28
2024-01-29T21:34:43.448Z,96.13
2024-01-29T21:38:45.598Z,96.15
2024-01-29T21:42:47.565Z,96.01
2024-01-29T21:46:53.544Z,95.94
2024-01-29T21:50:55.544Z,95.78
2024-01-29T21:54:57.813Z,96.01
2024-01-29T21:59:00.193Z,96.32
2024-01-29T22:03:02.240Z,96.46
2024-01-29T22:07:04.605Z,96.86
2024-01-29T22:11:06.885Z,97.04
2024-01-29T22:15:09.683Z,96.89
2024-01-29T22:19:11.706Z,96.65
2024-01-29T22:23:13.712Z,96.81
2024-01-29T22:27:15.943Z,96.88
2024-01-29T22:31:18.455Z,97.11
2024-01-29T22:35:20.831Z,97.09
2024-01-29T22:39:23.081Z,97.23
2024-01-29T22:43:25.338Z,97.21
2024-01-29T22:47:27.491Z,97.32
2024-01-29T22:51:29.713Z,97.31
2024-01-29T22:55:31.720Z,97.23
2024-01-29T22:59:33.837Z,97.35
2024-01-29T23:03:35.968Z,97.34
2024-01-29T23:07:39.032Z,97.49
2024-01-29T23:11:41.076Z,97.54
2024-01-29T23:15:43.220Z,97.47
2024-01-29T23:19:45.235Z,97.53
2024-01-29T23:23:47.222Z,97.67
2024-01-29T23:27:49.340Z,98.05
2024-01-29T23:31:51.317Z,98.06
2024-01-29T23:35:53.512Z,98.17
2024-01-29T23:39:55.592Z,98.15
2024-01-29T23:43:57.605Z,98.01
2024-01-29T23:47:59.593Z,98.08
2024-01-29T23:52:01.660Z,98.10
2024-01-29T23:56:04.052Z,97.82
